createdAt,value
2024-05-09T00:00:40.718Z,9.20
2024-05-09T00:03:09.913Z,9.20
2024-05-09T00:05:38.602Z,9.10
2024-05-09T00:08:06.658Z,9.10
2024-05-09T00:10:37.310Z,9.00
2024-05-09T00:13:06.883Z,8.90
2024-05-09T00:15:34.682Z,8.90
2024-05-09T00:18:02.574Z,8.80
2024-05-09T00:20:37.381Z,8.80
2024-05-09T00:23:08.889Z,8.80
2024-05-09T00:25:36.746Z,8.70
2024-05-09T00:28:03.882Z,8.70
2024-05-09T00:30:34.699Z,8.70
2024-05-09T00:33:05.386Z,8.70
2024-05-09T00:35:33.364Z,8.60
2024-05-09T00:38:00.566Z,8.50
2024-05-09T00:40:37.655Z,8.50
2024-05-09T00:43:07.607Z,8.50
2024-05-09T00:45:35.111Z,8.50
2024-05-09T00:48:06.468Z,8.50
2024-05-09T00:50:37.158Z,8.50
2024-05-09T00:53:08.517Z,8.60
2024-05-09T00:55:36.394Z,8.50
2024-05-09T00:58:05.428Z,8.50
2024-05-09T01:00:38.818Z,8.50
2024-05-09T01:03:09.579Z,8.40
2024-05-09T01:05:39.586Z,8.50
2024-05-09T01:08:07.499Z,8.40
2024-05-09T01:10:35.986Z,8.50
2024-05-09T01:13:04.371Z,8.40
2024-05-09T01:15:31.376Z,8.30
2024-05-09T01:18:00.395Z,8.30
2024-05-09T01:20:36.986Z,8.10
2024-05-09T01:23:09.947Z,8.00
2024-05-09T01:25:37.807Z,8.00
2024-05-09T01:28:05.029Z,8.10
2024-05-09T01:30:35.346Z,8.10
2024-05-09T01:33:09.588Z,8.10
2024-05-09T01:35:40.885Z,8.20
2024-05-09T01:38:09.728Z,8.10
2024-05-09T01:40:39.294Z,8.10
2024-05-09T01:43:08.903Z,8.10
2024-05-09T01:45:36.754Z,8.10
2024-05-09T01:48:04.210Z,8.20
2024-05-09T01:53:01.363Z,8.20
2024-05-09T01:55:29.051Z,8.20
2024-05-09T01:57:55.949Z,8.30
2024-05-09T02:00:33.804Z,8.30
2024-05-09T02:03:09.050Z,8.30
2024-05-09T02:05:36.181Z,8.40
2024-05-09T02:08:03.417Z,8.40
2024-05-09T02:10:32.865Z,8.30
2024-05-09T02:13:00.463Z,8.30
2024-05-09T02:15:27.356Z,8.30
2024-05-09T02:17:54.606Z,8.30
2024-05-09T02:20:30.327Z,8.30
2024-05-09T02:23:04.245Z,8.30
2024-05-09T02:25:31.889Z,8.30
2024-05-09T02:27:58.814Z,8.40
2024-05-09T02:30:35.664Z,8.40
2024-05-09T02:33:07.333Z,8.40
2024-05-09T02:35:34.670Z,8.40
2024-05-09T02:38:01.963Z,8.50
2024-05-09T02:40:36.198Z,8.50
2024-05-09T02:43:06.132Z,8.50
2024-05-09T02:45:33.303Z,8.60
2024-05-09T02:48:01.575Z,8.60
2024-05-09T02:50:37.071Z,8.60
2024-05-09T02:53:07.568Z,8.50
2024-05-09T02:55:35.115Z,8.50
2024-05-09T02:58:02.100Z,8.50
2024-05-09T03:00:37.656Z,8.40
2024-05-09T03:03:09.459Z,8.40
2024-05-09T03:05:37.899Z,8.40
2024-05-09T03:08:05.240Z,8.30
2024-05-09T03:10:36.195Z,8.30
2024-05-09T03:13:08.995Z,8.30
2024-05-09T03:15:36.481Z,8.30
2024-05-09T03:18:04.780Z,8.30
2024-05-09T03:20:34.970Z,8.30
2024-05-09T03:23:03.842Z,8.30
2024-05-09T03:25:30.995Z,8.10
2024-05-09T03:27:57.850Z,8.00
2024-05-09T03:30:36.634Z,8.00
2024-05-09T03:33:13.518Z,7.90
2024-05-09T03:35:41.388Z,7.80
2024-05-09T03:38:08.432Z,7.80
2024-05-09T03:40:35.500Z,7.80
2024-05-09T03:43:02.344Z,7.60
2024-05-09T03:45:29.207Z,7.70
2024-05-09T03:47:56.196Z,7.60
2024-05-09T03:50:30.049Z,7.70
2024-05-09T03:53:01.913Z,7.70
2024-05-09T03:55:28.987Z,7.60
2024-05-09T03:57:55.779Z,7.60
2024-05-09T04:00:31.300Z,7.60
2024-05-09T04:03:08.509Z,7.60
2024-05-09T04:05:39.776Z,7.50
2024-05-09T04:08:07.492Z,7.50
2024-05-09T04:10:35.268Z,7.50
2024-05-09T04:13:03.937Z,7.50
2024-05-09T04:15:31.623Z,7.50
2024-05-09T04:17:58.954Z,7.40
2024-05-09T04:22:55.871Z,7.40
2024-05-09T04:25:22.769Z,7.50
2024-05-09T04:27:49.583Z,7.60
2024-05-09T04:30:25.426Z,7.70
2024-05-09T04:32:57.964Z,7.70
2024-05-09T04:35:24.990Z,7.80
2024-05-09T04:37:51.831Z,7.90
2024-05-09T04:40:27.787Z,7.90
2024-05-09T04:42:59.587Z,8.00
2024-05-09T04:45:26.430Z,8.10
2024-05-09T04:47:54.220Z,8.10
2024-05-09T04:50:29.942Z,8.30
2024-05-09T04:53:03.533Z,8.30
2024-05-09T04:55:30.582Z,8.40
2024-05-09T04:57:57.650Z,8.50
2024-05-09T05:00:32.031Z,8.60
2024-05-09T05:03:06.896Z,8.60
2024-05-09T05:05:37.675Z,8.60
2024-05-09T05:08:05.482Z,8.70
2024-05-09T05:10:36.229Z,8.80
2024-05-09T05:13:21.034Z,8.90
2024-05-09T05:15:50.623Z,8.90
2024-05-09T05:18:17.974Z,9.00
2024-05-09T05:20:45.335Z,9.10
2024-05-09T05:23:13.844Z,9.20
2024-05-09T05:25:41.576Z,9.30
2024-05-09T05:28:08.412Z,9.50
2024-05-09T05:30:38.930Z,9.70
2024-05-09T05:33:07.155Z,9.90
2024-05-09T05:35:35.284Z,10.00
2024-05-09T05:38:03.024Z,10.20
2024-05-09T05:40:36.448Z,10.30
2024-05-09T05:43:09.379Z,10.40
2024-05-09T05:45:36.662Z,10.60
2024-05-09T05:48:05.886Z,10.70
2024-05-09T05:50:36.648Z,10.80
2024-05-09T05:53:09.919Z,10.90
2024-05-09T05:55:40.252Z,10.90
2024-05-09T05:58:10.906Z,11.10
2024-05-09T06:00:40.131Z,11.10
2024-05-09T06:03:09.256Z,11.10
2024-05-09T06:05:38.792Z,11.20
2024-05-09T06:08:06.403Z,11.40
2024-05-09T06:10:38.354Z,11.40
2024-05-09T06:13:07.925Z,11.50
2024-05-09T06:15:34.819Z,11.50
2024-05-09T06:18:02.097Z,11.70
2024-05-09T06:20:35.746Z,11.70
2024-05-09T06:23:09.363Z,11.70
2024-05-09T06:25:36.923Z,11.80
2024-05-09T06:28:04.418Z,12.00
2024-05-09T06:30:38.753Z,12.10
2024-05-09T06:33:10.814Z,12.30
2024-05-09T06:35:39.611Z,12.40
2024-05-09T06:38:09.189Z,12.50
2024-05-09T06:40:40.185Z,12.50
2024-05-09T06:43:16.875Z,12.60
2024-05-09T06:45:47.959Z,12.80
2024-05-09T06:48:17.240Z,12.90
2024-05-09T06:50:44.401Z,13.10
2024-05-09T06:53:14.230Z,13.30
2024-05-09T06:55:41.133Z,13.40
2024-05-09T06:58:12.064Z,13.60
2024-05-09T07:00:41.205Z,13.60
2024-05-09T07:03:10.309Z,13.70
2024-05-09T07:05:37.934Z,13.70
2024-05-09T07:08:05.844Z,13.80
2024-05-09T07:10:35.510Z,13.90
2024-05-09T07:13:03.453Z,14.00
2024-05-09T07:15:30.285Z,14.10
2024-05-09T07:17:57.312Z,14.20
2024-05-09T07:20:32.328Z,14.20
2024-05-09T07:23:03.021Z,14.30
2024-05-09T07:25:30.597Z,14.40
2024-05-09T07:27:57.459Z,14.40
2024-05-09T07:30:32.554Z,14.40
2024-05-09T07:33:02.269Z,14.50
2024-05-09T07:35:30.255Z,14.60
2024-05-09T07:37:57.604Z,14.60
2024-05-09T07:40:32.726Z,14.70
2024-05-09T07:43:07.215Z,14.70
2024-05-09T07:52:23.939Z,14.90
2024-05-09T07:53:39.113Z,15.00
2024-05-09T07:56:09.965Z,15.00
2024-05-09T07:58:37.622Z,15.20
2024-05-09T08:01:05.093Z,15.20
2024-05-09T08:03:32.322Z,15.30
2024-05-09T08:05:59.260Z,15.30
2024-05-09T08:08:26.674Z,15.50
2024-05-09T08:10:53.741Z,15.40
2024-05-09T08:13:20.755Z,15.50
2024-05-09T08:15:47.786Z,15.60
2024-05-09T08:18:14.749Z,15.60
2024-05-09T08:20:42.094Z,15.60
2024-05-09T08:23:08.996Z,15.80
2024-05-09T08:25:35.893Z,16.00
2024-05-09T08:28:04.734Z,16.10
2024-05-09T08:30:36.794Z,16.20
2024-05-09T08:33:06.691Z,16.50
2024-05-09T08:35:34.662Z,16.50
2024-05-09T08:38:06.091Z,16.80
2024-05-09T08:43:10.865Z,17.40
2024-05-09T08:45:42.669Z,17.90
2024-05-09T08:50:40.788Z,18.80
2024-05-09T08:53:08.640Z,19.10
2024-05-09T08:55:40.233Z,19.70
2024-05-09T08:58:10.926Z,20.20
2024-05-09T09:00:39.214Z,20.60
2024-05-09T09:03:09.448Z,20.10
2024-05-09T09:05:38.569Z,19.60
2024-05-09T09:08:07.852Z,19.40
2024-05-09T09:10:35.240Z,18.70
2024-05-09T09:13:04.924Z,19.20
2024-05-09T09:15:32.890Z,20.10
2024-05-09T09:18:00.953Z,20.20
2024-05-09T09:20:35.822Z,20.80
2024-05-09T09:23:04.591Z,21.10
2024-05-09T09:25:32.160Z,21.40
2024-05-09T09:27:59.188Z,20.90
2024-05-09T09:30:36.360Z,20.60
2024-05-09T09:33:14.104Z,20.90
2024-05-09T09:35:41.120Z,21.60
2024-05-09T09:38:10.046Z,22.20
2024-05-09T09:40:42.502Z,22.40
2024-05-09T09:43:21.494Z,22.40
2024-05-09T09:45:51.003Z,22.10
2024-05-09T09:48:20.080Z,22.00
2024-05-09T09:50:47.654Z,22.00
2024-05-09T09:53:16.030Z,21.40
2024-05-09T09:55:43.208Z,21.20
2024-05-09T09:58:13.440Z,21.20
2024-05-09T10:00:41.815Z,21.40
2024-05-09T10:03:08.919Z,21.80
2024-05-09T10:05:36.390Z,22.20
2024-05-09T10:08:05.851Z,21.90
2024-05-09T10:10:34.357Z,21.80
2024-05-09T10:13:05.243Z,22.10
2024-05-09T10:15:48.281Z,22.00
2024-05-09T10:18:15.587Z,22.20
2024-05-09T10:20:49.230Z,21.50
2024-05-09T10:23:43.611Z,21.30
2024-05-09T10:26:10.405Z,21.70
2024-05-09T10:28:42.493Z,22.30
2024-05-09T10:31:11.352Z,22.60
2024-05-09T10:33:52.340Z,22.80
2024-05-09T10:36:24.553Z,22.70
2024-05-09T10:38:52.689Z,22.90
2024-05-09T10:41:20.398Z,22.90
2024-05-09T10:43:48.195Z,23.10
2024-05-09T10:46:15.186Z,23.00
2024-05-09T10:48:43.247Z,23.00
2024-05-09T10:51:10.812Z,23.10
2024-05-09T10:53:45.124Z,23.10
2024-05-09T10:56:14.287Z,23.00
2024-05-09T10:58:41.215Z,23.10
2024-05-09T11:01:09.189Z,23.10
2024-05-09T11:03:36.835Z,23.20
2024-05-09T11:06:04.392Z,23.30
2024-05-09T11:08:32.240Z,23.40
2024-05-09T11:11:04.700Z,23.50
2024-05-09T11:13:33.079Z,23.20
2024-05-09T11:16:00.387Z,23.40
2024-05-09T11:18:31.746Z,23.90
2024-05-09T11:21:01.548Z,24.00
2024-05-09T11:23:30.596Z,23.30
2024-05-09T11:25:58.958Z,23.20
2024-05-09T11:28:27.105Z,23.10
2024-05-09T11:31:05.407Z,22.60
2024-05-09T11:33:32.357Z,22.80
2024-05-09T11:35:59.220Z,22.80
2024-05-09T11:38:26.163Z,22.30
2024-05-09T11:40:52.976Z,22.40
2024-05-09T11:43:20.011Z,22.90
2024-05-09T11:45:46.934Z,22.90
2024-05-09T11:48:13.915Z,22.50
2024-05-09T11:50:40.852Z,21.90
2024-05-09T11:53:07.618Z,21.80
2024-05-09T11:55:36.368Z,22.30
2024-05-09T11:58:04.297Z,22.10
2024-05-09T12:00:36.695Z,22.20
2024-05-09T12:03:05.872Z,22.80
2024-05-09T12:05:34.119Z,23.30
2024-05-09T12:08:01.575Z,23.30
2024-05-09T12:10:33.461Z,23.40
2024-05-09T12:13:03.978Z,24.00
2024-05-09T12:18:02.484Z,25.10
2024-05-09T12:20:36.739Z,24.50
2024-05-09T12:23:06.465Z,23.20
2024-05-09T12:25:33.622Z,23.30
2024-05-09T12:28:00.813Z,23.30
2024-05-09T12:30:36.131Z,23.60
2024-05-09T12:33:07.980Z,23.90
2024-05-09T12:35:35.112Z,24.40
2024-05-09T12:40:36.393Z,24.90
2024-05-09T12:43:07.464Z,23.80
2024-05-09T12:45:35.263Z,23.20
2024-05-09T12:48:02.286Z,23.10
2024-05-09T12:50:32.707Z,23.30
2024-05-09T12:53:02.585Z,23.50
2024-05-09T12:55:36.423Z,23.60
2024-05-09T12:58:08.811Z,23.40
2024-05-09T13:00:36.281Z,23.30
2024-05-09T13:03:03.445Z,23.40
2024-05-09T13:05:30.586Z,23.60
2024-05-09T13:07:57.562Z,23.50
2024-05-09T13:10:31.715Z,23.70
2024-05-09T13:13:00.898Z,23.80
2024-05-09T13:15:29.297Z,24.10
2024-05-09T13:18:00.180Z,24.30
2024-05-09T13:20:33.229Z,24.00
2024-05-09T13:23:03.619Z,24.30
2024-05-09T13:25:30.555Z,24.60
2024-05-09T13:27:57.791Z,24.80
2024-05-09T13:30:30.231Z,24.60
2024-05-09T13:33:06.579Z,24.20
2024-05-09T13:35:35.218Z,24.00
2024-05-09T13:38:03.273Z,24.10
2024-05-09T13:40:34.358Z,24.40
2024-05-09T13:43:04.562Z,24.30
2024-05-09T13:47:59.886Z,26.10
2024-05-09T13:50:33.462Z,26.10
2024-05-09T13:53:04.706Z,26.30
2024-05-09T13:55:32.026Z,26.60
2024-05-09T13:57:58.987Z,27.00
2024-05-09T14:00:38.041Z,26.50
2024-05-09T14:03:11.841Z,26.60
2024-05-09T14:05:38.959Z,26.50
2024-05-09T14:08:06.171Z,26.90
2024-05-09T14:10:33.251Z,27.20
2024-05-09T14:13:01.140Z,28.00
2024-05-09T14:15:28.323Z,28.50
2024-05-09T14:17:55.491Z,27.60
2024-05-09T14:20:30.577Z,26.70
2024-05-09T14:23:00.837Z,26.10
2024-05-09T14:25:35.084Z,26.50
2024-05-09T14:28:04.103Z,26.50
2024-05-09T14:30:36.665Z,26.60
2024-05-09T14:33:06.400Z,26.40
2024-05-09T14:35:34.277Z,26.10
2024-05-09T14:38:01.190Z,26.20
2024-05-09T14:40:38.822Z,26.30
2024-05-09T14:43:13.980Z,26.80
2024-05-09T14:45:42.006Z,26.70
2024-05-09T14:48:09.852Z,27.00
2024-05-09T14:50:39.426Z,26.80
2024-05-09T14:53:08.966Z,26.90
2024-05-09T14:55:37.568Z,27.50
2024-05-09T14:58:07.021Z,27.60
2024-05-09T15:00:38.365Z,27.50
2024-05-09T15:03:06.880Z,28.00
2024-05-09T15:05:33.758Z,27.60
2024-05-09T15:08:00.802Z,27.10
2024-05-09T15:10:34.463Z,27.10
2024-05-09T15:13:03.627Z,26.90
2024-05-09T15:15:30.850Z,27.00
2024-05-09T15:17:57.942Z,27.10
2024-05-09T15:20:32.982Z,27.20
2024-05-09T15:23:02.900Z,27.40
2024-05-09T15:25:30.044Z,27.30
2024-05-09T15:27:57.119Z,27.70
2024-05-09T15:32:53.937Z,27.50
2024-05-09T15:35:20.948Z,27.30
2024-05-09T15:37:48.409Z,27.10
2024-05-09T15:40:22.329Z,27.10
2024-05-09T15:42:58.045Z,27.30
2024-05-09T15:45:24.756Z,27.80
2024-05-09T15:47:51.617Z,27.30
2024-05-09T15:50:28.197Z,27.20
2024-05-09T15:53:02.396Z,26.90
2024-05-09T15:55:33.751Z,27.10
2024-05-09T15:58:02.454Z,27.70
2024-05-09T16:00:37.208Z,27.10
2024-05-09T16:03:08.621Z,26.80
2024-05-09T16:05:36.379Z,26.70
2024-05-09T16:08:03.535Z,27.00
2024-05-09T16:10:33.110Z,27.20
2024-05-09T16:13:02.381Z,27.10
2024-05-09T16:15:30.226Z,26.80
2024-05-09T16:17:57.349Z,26.90
2024-05-09T16:22:54.372Z,27.50
2024-05-09T16:25:21.584Z,26.50
2024-05-09T16:27:50.999Z,26.10
2024-05-09T16:30:24.840Z,26.50
2024-05-09T16:32:58.695Z,26.40
2024-05-09T16:35:25.531Z,26.30
2024-05-09T16:37:52.368Z,26.40
2024-05-09T16:40:29.201Z,26.40
2024-05-09T16:43:03.562Z,26.80
2024-05-09T16:45:30.641Z,27.00
2024-05-09T16:47:58.693Z,26.90
2024-05-09T16:50:30.993Z,26.40
2024-05-09T16:53:00.099Z,25.90
2024-05-09T16:55:27.375Z,25.70
2024-05-09T16:57:54.603Z,25.30
2024-05-09T17:00:31.635Z,25.30
2024-05-09T17:03:07.191Z,25.30
2024-05-09T17:05:34.883Z,25.40
2024-05-09T17:08:02.572Z,25.20
2024-05-09T17:10:33.215Z,25.40
2024-05-09T17:13:06.581Z,25.60
2024-05-09T17:15:35.476Z,25.50
2024-05-09T17:18:02.943Z,25.60
2024-05-09T17:20:34.344Z,25.70
2024-05-09T17:23:05.651Z,25.60
2024-05-09T17:25:33.694Z,25.70
2024-05-09T17:28:06.797Z,25.90
2024-05-09T17:30:37.338Z,25.60
2024-05-09T17:33:07.756Z,25.60
2024-05-09T17:35:36.042Z,25.40
2024-05-09T17:38:02.937Z,25.70
2024-05-09T17:40:34.769Z,25.30
2024-05-09T17:43:04.991Z,25.10
2024-05-09T17:45:32.841Z,24.40
2024-05-09T17:48:00.378Z,23.50
2024-05-09T17:50:34.897Z,22.90
2024-05-09T17:53:04.828Z,22.30
2024-05-09T17:55:32.039Z,21.90
2024-05-09T17:57:59.263Z,21.50
2024-05-09T18:02:56.224Z,20.90
2024-05-09T18:05:23.310Z,20.50
2024-05-09T18:07:50.319Z,20.30
2024-05-09T18:10:25.212Z,20.20
2024-05-09T18:12:56.624Z,20.00
2024-05-09T18:15:23.548Z,19.70
2024-05-09T18:17:51.499Z,19.50
2024-05-09T18:20:28.584Z,19.30
2024-05-09T18:23:05.521Z,19.20
2024-05-09T18:25:32.344Z,19.00
2024-05-09T18:27:59.235Z,18.90
2024-05-09T18:30:32.382Z,18.70
2024-05-09T18:33:02.243Z,18.50
2024-05-09T18:37:56.515Z,18.10
2024-05-09T18:42:53.479Z,17.60
2024-05-09T18:45:20.274Z,17.40
2024-05-09T18:50:20.913Z,17.10
2024-05-09T18:52:55.532Z,16.90
2024-05-09T18:55:22.325Z,16.70
2024-05-09T18:57:49.312Z,16.60
2024-05-09T19:00:26.051Z,16.40
2024-05-09T19:02:58.809Z,16.30
2024-05-09T19:05:25.973Z,16.10
2024-05-09T19:07:53.958Z,16.00
2024-05-09T19:10:23.019Z,15.90
2024-05-09T19:12:53.060Z,15.80
2024-05-09T19:15:19.950Z,15.80
2024-05-09T19:17:48.212Z,15.70
2024-05-09T19:20:24.889Z,15.70
2024-05-09T19:22:56.237Z,15.60
2024-05-09T19:25:23.123Z,15.50
2024-05-09T19:27:49.928Z,15.40
2024-05-09T19:30:28.889Z,15.20
2024-05-09T19:33:03.005Z,15.00
2024-05-09T19:35:29.796Z,14.80
2024-05-09T19:37:56.617Z,14.70
2024-05-09T19:40:29.167Z,14.70
2024-05-09T19:42:59.240Z,14.60
2024-05-09T19:45:26.090Z,14.50
2024-05-09T19:47:53.218Z,14.50
2024-05-09T19:50:27.021Z,14.30
2024-05-09T19:53:03.079Z,14.20
2024-05-09T19:55:30.106Z,14.10
2024-05-09T19:57:57.171Z,14.00
2024-05-09T20:00:32.508Z,13.90
2024-05-09T20:05:31.183Z,13.70
2024-05-09T20:07:58.444Z,13.60
2024-05-09T20:10:31.428Z,13.50
2024-05-09T20:13:00.575Z,13.50
2024-05-09T20:15:27.517Z,13.50
2024-05-09T20:17:55.119Z,13.50
2024-05-09T20:22:51.988Z,13.40
2024-05-09T20:25:18.887Z,13.40
2024-05-09T20:27:45.850Z,13.30
2024-05-09T20:30:20.867Z,13.30
2024-05-09T20:32:51.985Z,13.20
2024-05-09T20:35:18.826Z,13.10
2024-05-09T20:37:45.728Z,13.10
2024-05-09T20:40:18.600Z,13.00
2024-05-09T20:42:52.286Z,13.00
2024-05-09T20:45:19.188Z,12.90
2024-05-09T20:47:46.202Z,12.90
2024-05-09T20:50:23.091Z,12.90
2024-05-09T20:52:55.666Z,12.90
2024-05-09T20:55:22.601Z,12.80
2024-05-09T20:57:49.434Z,12.60
2024-05-09T21:00:19.252Z,12.60
2024-05-09T21:02:52.194Z,12.70
2024-05-09T21:05:19.516Z,12.60
2024-05-09T21:07:46.473Z,12.50
2024-05-09T21:10:19.418Z,12.50
2024-05-09T21:12:49.471Z,12.50
2024-05-09T21:15:16.375Z,12.60
2024-05-09T21:17:43.285Z,12.80
2024-05-09T21:20:17.036Z,12.70
2024-05-09T21:22:47.307Z,12.70
2024-05-09T21:25:14.398Z,12.70
2024-05-09T21:27:41.412Z,12.60
2024-05-09T21:30:13.294Z,12.60
2024-05-09T21:32:45.765Z,12.50
2024-05-09T21:37:39.944Z,12.40
2024-05-09T21:40:13.381Z,12.40
2024-05-09T21:42:40.847Z,12.30
2024-05-09T21:45:08.025Z,12.20
2024-05-09T21:47:35.014Z,12.20
2024-05-09T21:50:01.905Z,12.20
2024-05-09T21:52:28.681Z,12.10
2024-05-09T21:54:55.615Z,12.10
2024-05-09T21:57:22.480Z,12.00
2024-05-09T21:59:49.413Z,12.00
2024-05-09T22:02:16.313Z,11.90
2024-05-09T22:04:43.171Z,11.90
2024-05-09T22:07:10.301Z,11.90
2024-05-09T22:09:37.228Z,11.80
2024-05-09T22:12:04.775Z,11.80
2024-05-09T22:14:31.704Z,11.80
2024-05-09T22:16:58.591Z,11.80
2024-05-09T22:19:25.659Z,11.70
2024-05-09T22:24:20.112Z,11.60
2024-05-09T22:26:46.929Z,11.60
2024-05-09T22:29:13.764Z,11.50
2024-05-09T22:31:40.678Z,11.40
2024-05-09T22:34:07.726Z,11.30
2024-05-09T22:36:34.664Z,11.20
2024-05-09T22:39:01.518Z,11.20
2024-05-09T22:41:28.426Z,11.10
2024-05-09T22:43:55.220Z,11.10
2024-05-09T22:46:22.097Z,11.10
2024-05-09T22:48:49.194Z,11.10
2024-05-09T22:51:16.106Z,11.10
2024-05-09T22:53:42.867Z,11.00
2024-05-09T22:56:11.248Z,11.00
2024-05-09T22:58:38.168Z,11.00
2024-05-09T23:01:05.510Z,10.90
2024-05-09T23:03:32.917Z,10.90
2024-05-09T23:05:59.852Z,10.80
2024-05-09T23:08:26.682Z,10.90
2024-05-09T23:10:53.810Z,10.90
2024-05-09T23:13:20.851Z,10.70
2024-05-09T23:15:47.936Z,10.70
2024-05-09T23:18:14.881Z,10.70
2024-05-09T23:20:41.741Z,10.60
2024-05-09T23:23:10.677Z,10.50
2024-05-09T23:25:38.832Z,10.40
2024-05-09T23:28:06.239Z,10.40
2024-05-09T23:30:38.197Z,10.40
2024-05-09T23:33:09.066Z,10.40
2024-05-09T23:35:36.003Z,10.30
2024-05-09T23:38:03.230Z,10.20
2024-05-09T23:40:38.426Z,10.10
2024-05-09T23:43:09.075Z,10.20
2024-05-09T23:45:36.475Z,10.20
2024-05-09T23:48:04.090Z,10.30
2024-05-09T23:50:35.613Z,10.30
2024-05-09T23:53:06.321Z,10.20
2024-05-09T23:55:34.149Z,10.20
2024-05-09T23:58:01.141Z,10.20
